Corbin, Virginia
Current Conditions -  °F | °C
As of 5:55 PM on Friday 28 Nov 2014 (Local Time) from KEZF Reporting Station
Clear Clear  
Wind Chill: 34°   Ceiling: Unl
Heat Index: 34°   Visibility: 10mi
Dew Point: 21°   Wind: 0mph
Humidity: 60%   Direction: NA
Pressure: 30.29"   Gusts: NA
Location:  38.2°N, 77.39°W
Report Text: KEZF 282255Z AUTO 00000KT 10SM CLR 01/M06 A3029 RMK AO2 T00101059
Loading
Personal Weather Stations






























Interactive Weather Map New forecast layout! Learn more

10-Day Weather Forecast

Advertisements
Track Severe Weather on mobile